Main page
METAR-TAF:

METAR-TAF

Airports :

Lankaran, Azerbaijan

Lankaran International Airport

latitude: 38-44-47N, longitude: 048-49-04E, elevation: 9 m

Current weather observation

The report was made 55 minutes ago, at 04:00 UTC
Wind 7 kt from the Northwest
Temperature 27°C
Humidity 70%
Pressure 1014 hPa
Visibility 10 km or more

METAR: UBBL 240400Z 31007KT 9999 NSC 27/21 Q1014 R33/CLRD// NOSIG RMK MT OP

Time: 08:55 (04:55 UTC)

Forecast

The report was made 5 hours and 48 minutes ago, at 23:07 UTC
Forecast valid from 24 at 00 UTC to 24 at 24 UTC
Wind 6 kt from the North
Visibility 10 km or more
Temporary
from 24 at 00 UTC to 24 at 04 UTC
Wind 4 kt from variable directions
Visibility: 3000 m
Scattered clouds at a height of 600 ft
mist
Becoming
from 24 at 06 UTC to 24 at 08 UTC
Wind 8 kt from the East/Southeast
Scattered clouds at a height of 2000 ft

TAF: UBBL 232307Z 2400/2424 36006KT 9999 NSC TX34/2410Z TN21/2402Z TEMPO 2400/2404 VRB04KT 3000 BR SCT006 BECMG 2406/2408 12008KT SCT020

Weather observations and forecasts of more than 4000 airports (METAR and TAF reports).

The available stations are represented by yellow and red dots on the map.

Hover mouse over dot to see the name of the station.

Then click to see weather observations and forecasts.

To change the map : click on the green buttons with a black cross to zoom in, on the green button with a dash to zoom out, or on the green arrows for adjacent maps.


METAR-TAF: